Fern, Iowa
Current Conditions -  °F | °C
As of 4:54 AM on Sunday 23 Nov 2014 (Local Time) from KALO Reporting Station
Haze Haze  
Wind Chill: 50°   Ceiling: 600
Heat Index: 50°   Visibility: 4mi
Dew Point: 50°   Wind: 20mph
Humidity: 100%   Direction: 180°S
Pressure: 29.56"   Gusts: 25mph
Location:  42.5787°N, 92.7634°W
Report Text: KALO 231054Z 18017G22KT 4SM BR OVC006 10/10 A2956 RMK AO2 SLP012 T01000100 $
Loading
Personal Weather Stations






























Interactive Weather Map New forecast layout! Learn more

10-Day Weather Forecast

Advertisements
Track Severe Weather on mobile